sensor_id;sensor_type;location;lat;lon;timestamp;pressure;altitude;pressure_sealevel;temperature;humidity
65659;BME280;60181;53.258;6.932;2023-05-08T00:02:43;102368.87;;;16.33;60.90
65659;BME280;60181;53.258;6.932;2023-05-08T00:06:47;102368.06;;;16.31;60.83
65659;BME280;60181;53.258;6.932;2023-05-08T00:10:51;102367.40;;;16.30;60.76
65659;BME280;60181;53.258;6.932;2023-05-08T00:14:55;102367.36;;;16.30;60.47
65659;BME280;60181;53.258;6.932;2023-05-08T00:18:59;102365.80;;;16.30;60.84
65659;BME280;60181;53.258;6.932;2023-05-08T00:23:03;102363.34;;;16.31;60.59
65659;BME280;60181;53.258;6.932;2023-05-08T00:27:07;102361.61;;;16.31;60.58
65659;BME280;60181;53.258;6.932;2023-05-08T00:31:11;102358.97;;;16.31;60.79
65659;BME280;60181;53.258;6.932;2023-05-08T00:35:15;102355.38;;;16.30;60.56
65659;BME280;60181;53.258;6.932;2023-05-08T00:39:19;102353.97;;;16.30;60.36
65659;BME280;60181;53.258;6.932;2023-05-08T00:43:23;102354.63;;;16.30;60.46
65659;BME280;60181;53.258;6.932;2023-05-08T00:47:28;102357.98;;;16.29;60.49
65659;BME280;60181;53.258;6.932;2023-05-08T00:51:31;102361.18;;;16.27;60.49
65659;BME280;60181;53.258;6.932;2023-05-08T00:55:36;102362.55;;;16.26;60.41
65659;BME280;60181;53.258;6.932;2023-05-08T00:59:39;102362.24;;;16.25;60.74
65659;BME280;60181;53.258;6.932;2023-05-08T01:03:43;102361.41;;;16.24;61.05
65659;BME280;60181;53.258;6.932;2023-05-08T01:07:47;102359.52;;;16.24;60.87
65659;BME280;60181;53.258;6.932;2023-05-08T01:11:55;102357.95;;;16.24;61.01
65659;BME280;60181;53.258;6.932;2023-05-08T01:15:58;102357.33;;;16.23;61.00
65659;BME280;60181;53.258;6.932;2023-05-08T01:36:28;102364.31;;;16.24;62.21
65659;BME280;60181;53.258;6.932;2023-05-08T01:40:32;102364.45;;;16.26;62.07
65659;BME280;60181;53.258;6.932;2023-05-08T01:44:23;102362.97;;;16.27;61.64
65659;BME280;60181;53.258;6.932;2023-05-08T01:48:29;102361.92;;;16.28;61.57
65659;BME280;60181;53.258;6.932;2023-05-08T01:52:33;102358.70;;;16.28;61.42
65659;BME280;60181;53.258;6.932;2023-05-08T01:56:35;102354.99;;;16.28;61.50
65659;BME280;60181;53.258;6.932;2023-05-08T02:00:39;102353.21;;;16.27;61.17
65659;BME280;60181;53.258;6.932;2023-05-08T02:04:43;102352.26;;;16.25;61.01
65659;BME280;60181;53.258;6.932;2023-05-08T02:08:48;102351.83;;;16.24;61.12
65659;BME280;60181;53.258;6.932;2023-05-08T02:12:51;102350.51;;;16.22;60.95
65659;BME280;60181;53.258;6.932;2023-05-08T02:16:55;102350.41;;;16.21;61.86
65659;BME280;60181;53.258;6.932;2023-05-08T02:20:59;102351.51;;;16.22;60.61
65659;BME280;60181;53.258;6.932;2023-05-08T02:25:03;102354.96;;;16.21;60.41
65659;BME280;60181;53.258;6.932;2023-05-08T02:29:07;102358.26;;;16.21;60.62
65659;BME280;60181;53.258;6.932;2023-05-08T02:33:11;102362.11;;;16.20;60.76
65659;BME280;60181;53.258;6.932;2023-05-08T02:37:15;102364.59;;;16.19;60.51
65659;BME280;60181;53.258;6.932;2023-05-08T02:41:20;102365.77;;;16.18;60.66
65659;BME280;60181;53.258;6.932;2023-05-08T02:45:24;102366.97;;;16.16;60.56
65659;BME280;60181;53.258;6.932;2023-05-08T02:49:45;102369.25;;;16.15;60.81
65659;BME280;60181;53.258;6.932;2023-05-08T02:53:34;102370.33;;;16.16;61.32
65659;BME280;60181;53.258;6.932;2023-05-08T03:01:47;102370.92;;;16.19;60.14
65659;BME280;60181;53.258;6.932;2023-05-08T03:05:45;102372.11;;;16.20;60.55
65659;BME280;60181;53.258;6.932;2023-05-08T03:09:47;102373.61;;;16.23;60.95
65659;BME280;60181;53.258;6.932;2023-05-08T03:13:51;102373.58;;;16.22;60.17
65659;BME280;60181;53.258;6.932;2023-05-08T03:17:56;102372.58;;;16.18;59.72
65659;BME280;60181;53.258;6.932;2023-05-08T03:21:59;102372.03;;;16.14;59.52
65659;BME280;60181;53.258;6.932;2023-05-08T03:26:03;102372.51;;;16.11;59.35
65659;BME280;60181;53.258;6.932;2023-05-08T03:30:07;102373.99;;;16.07;59.31
65659;BME280;60181;53.258;6.932;2023-05-08T03:34:11;102373.63;;;16.04;59.06
65659;BME280;60181;53.258;6.932;2023-05-08T03:38:15;102372.54;;;16.01;58.90
65659;BME280;60181;53.258;6.932;2023-05-08T03:42:19;102371.94;;;15.98;59.00
65659;BME280;60181;53.258;6.932;2023-05-08T03:46:23;102371.00;;;15.97;59.16
65659;BME280;60181;53.258;6.932;2023-05-08T03:50:27;102370.62;;;15.97;59.34
65659;BME280;60181;53.258;6.932;2023-05-08T03:54:31;102370.10;;;15.94;59.41
65659;BME280;60181;53.258;6.932;2023-05-08T03:58:40;102370.25;;;15.91;59.35
65659;BME280;60181;53.258;6.932;2023-05-08T04:14:51;102366.56;;;15.80;58.73
65659;BME280;60181;53.258;6.932;2023-05-08T04:19:01;102366.31;;;15.79;58.42
65659;BME280;60181;53.258;6.932;2023-05-08T04:22:59;102366.02;;;15.81;57.95
65659;BME280;60181;53.258;6.932;2023-05-08T04:27:03;102365.96;;;15.84;57.66
65659;BME280;60181;53.258;6.932;2023-05-08T04:31:07;102366.52;;;15.88;57.41
65659;BME280;60181;53.258;6.932;2023-05-08T04:35:11;102366.46;;;15.89;57.47
65659;BME280;60181;53.258;6.932;2023-05-08T04:39:15;102367.32;;;15.90;57.45
65659;BME280;60181;53.258;6.932;2023-05-08T04:43:19;102368.84;;;15.91;57.34
65659;BME280;60181;53.258;6.932;2023-05-08T04:47:23;102369.44;;;15.94;56.91
65659;BME280;60181;53.258;6.932;2023-05-08T04:51:27;102368.44;;;15.96;56.79
65659;BME280;60181;53.258;6.932;2023-05-08T04:55:31;102367.77;;;15.99;56.85
65659;BME280;60181;53.258;6.932;2023-05-08T04:59:35;102367.24;;;16.03;58.91
65659;BME280;60181;53.258;6.932;2023-05-08T05:03:39;102365.58;;;16.08;57.12
65659;BME280;60181;53.258;6.932;2023-05-08T05:07:43;102363.67;;;16.11;56.06
65659;BME280;60181;53.258;6.932;2023-05-08T05:11:47;102363.58;;;16.16;59.07
65659;BME280;60181;53.258;6.932;2023-05-08T05:15:51;102365.40;;;16.27;56.25
65659;BME280;60181;53.258;6.932;2023-05-08T05:19:55;102364.76;;;16.35;56.75
65659;BME280;60181;53.258;6.932;2023-05-08T05:23:59;102364.51;;;16.40;56.36
65659;BME280;60181;53.258;6.932;2023-05-08T05:28:03;102364.34;;;16.45;56.05
65659;BME280;60181;53.258;6.932;2023-05-08T05:32:07;102365.03;;;16.53;55.45
65659;BME280;60181;53.258;6.932;2023-05-08T05:36:11;102366.55;;;16.62;55.33
65659;BME280;60181;53.258;6.932;2023-05-08T05:40:15;102368.59;;;16.64;55.81
65659;BME280;60181;53.258;6.932;2023-05-08T05:44:19;102370.10;;;16.62;55.41
65659;BME280;60181;53.258;6.932;2023-05-08T05:48:23;102372.34;;;16.62;55.54
65659;BME280;60181;53.258;6.932;2023-05-08T05:52:27;102373.19;;;16.60;55.62
65659;BME280;60181;53.258;6.932;2023-05-08T05:56:31;102374.78;;;16.57;55.55
65659;BME280;60181;53.258;6.932;2023-05-08T06:00:35;102375.87;;;16.56;55.27
65659;BME280;60181;53.258;6.932;2023-05-08T06:04:39;102377.50;;;16.55;55.30
65659;BME280;60181;53.258;6.932;2023-05-08T06:08:43;102379.80;;;16.57;55.10
65659;BME280;60181;53.258;6.932;2023-05-08T06:12:47;102380.24;;;16.57;55.11
65659;BME280;60181;53.258;6.932;2023-05-08T06:16:51;102380.66;;;16.57;55.20
65659;BME280;60181;53.258;6.932;2023-05-08T06:20:55;102381.31;;;16.57;55.51
65659;BME280;60181;53.258;6.932;2023-05-08T06:24:59;102381.70;;;16.57;55.96
65659;BME280;60181;53.258;6.932;2023-05-08T06:29:03;102382.75;;;16.59;56.14
65659;BME280;60181;53.258;6.932;2023-05-08T06:33:07;102383.95;;;16.64;55.71
65659;BME280;60181;53.258;6.932;2023-05-08T06:37:11;102385.46;;;16.69;55.71
65659;BME280;60181;53.258;6.932;2023-05-08T06:41:15;102384.99;;;16.76;55.64
65659;BME280;60181;53.258;6.932;2023-05-08T06:45:19;102383.73;;;16.85;55.35
65659;BME280;60181;53.258;6.932;2023-05-08T06:49:23;102384.52;;;16.98;55.07
65659;BME280;60181;53.258;6.932;2023-05-08T06:53:27;102384.20;;;17.12;54.75
65659;BME280;60181;53.258;6.932;2023-05-08T06:57:31;102384.01;;;17.20;54.74
65659;BME280;60181;53.258;6.932;2023-05-08T07:01:36;102383.29;;;17.18;54.69
65659;BME280;60181;53.258;6.932;2023-05-08T07:05:39;102382.03;;;17.17;54.63
65659;BME280;60181;53.258;6.932;2023-05-08T07:09:43;102380.87;;;17.17;54.96
65659;BME280;60181;53.258;6.932;2023-05-08T07:13:47;102379.16;;;17.15;55.49
65659;BME280;60181;53.258;6.932;2023-05-08T07:17:51;102378.33;;;17.11;55.81
65659;BME280;60181;53.258;6.932;2023-05-08T07:21:55;102378.17;;;17.06;56.02
65659;BME280;60181;53.258;6.932;2023-05-08T07:25:59;102378.59;;;17.02;56.02
65659;BME280;60181;53.258;6.932;2023-05-08T07:30:03;102378.28;;;17.00;56.10
65659;BME280;60181;53.258;6.932;2023-05-08T07:34:07;102377.97;;;16.97;56.21
65659;BME280;60181;53.258;6.932;2023-05-08T07:38:11;102376.23;;;16.95;56.41
65659;BME280;60181;53.258;6.932;2023-05-08T07:42:15;102374.73;;;16.92;56.62
65659;BME280;60181;53.258;6.932;2023-05-08T07:46:19;102373.18;;;16.90;56.72
65659;BME280;60181;53.258;6.932;2023-05-08T07:50:23;102371.08;;;16.88;56.81
65659;BME280;60181;53.258;6.932;2023-05-08T07:54:27;102368.82;;;16.87;56.63
65659;BME280;60181;53.258;6.932;2023-05-08T07:58:31;102366.30;;;16.87;56.44
65659;BME280;60181;53.258;6.932;2023-05-08T08:02:35;102363.36;;;16.88;56.39
65659;BME280;60181;53.258;6.932;2023-05-08T08:06:39;102361.92;;;16.90;56.41
65659;BME280;60181;53.258;6.932;2023-05-08T08:10:43;102361.27;;;16.94;56.56
65659;BME280;60181;53.258;6.932;2023-05-08T08:14:47;102360.85;;;16.98;56.30
65659;BME280;60181;53.258;6.932;2023-05-08T08:18:51;102360.66;;;17.03;56.17
65659;BME280;60181;53.258;6.932;2023-05-08T08:22:55;102359.30;;;17.08;56.45
65659;BME280;60181;53.258;6.932;2023-05-08T08:26:59;102356.16;;;17.12;56.66
65659;BME280;60181;53.258;6.932;2023-05-08T08:31:03;102352.72;;;17.16;56.59
65659;BME280;60181;53.258;6.932;2023-05-08T08:35:07;102350.90;;;17.23;56.43
65659;BME280;60181;53.258;6.932;2023-05-08T08:39:11;102350.45;;;17.29;56.46
65659;BME280;60181;53.258;6.932;2023-05-08T08:43:15;102348.05;;;17.32;56.71
65659;BME280;60181;53.258;6.932;2023-05-08T08:47:19;102345.15;;;17.36;56.56
65659;BME280;60181;53.258;6.932;2023-05-08T08:51:32;102343.14;;;17.41;56.58
65659;BME280;60181;53.258;6.932;2023-05-08T08:55:27;102342.28;;;17.44;56.80
65659;BME280;60181;53.258;6.932;2023-05-08T08:59:31;102343.33;;;17.45;56.95
65659;BME280;60181;53.258;6.932;2023-05-08T09:03:35;102345.56;;;17.46;57.22
65659;BME280;60181;53.258;6.932;2023-05-08T09:07:39;102347.96;;;17.46;57.35
65659;BME280;60181;53.258;6.932;2023-05-08T09:11:43;102349.13;;;17.46;57.50
65659;BME280;60181;53.258;6.932;2023-05-08T09:15:47;102349.05;;;17.45;57.54
65659;BME280;60181;53.258;6.932;2023-05-08T09:19:51;102348.13;;;17.46;57.55
65659;BME280;60181;53.258;6.932;2023-05-08T09:23:58;102348.19;;;17.48;57.29
65659;BME280;60181;53.258;6.932;2023-05-08T09:28:09;102346.77;;;17.51;57.56
65659;BME280;60181;53.258;6.932;2023-05-08T09:32:03;102345.25;;;17.54;57.65
65659;BME280;60181;53.258;6.932;2023-05-08T09:36:07;102344.42;;;17.57;57.38
65659;BME280;60181;53.258;6.932;2023-05-08T09:40:18;102343.25;;;17.60;57.35
65659;BME280;60181;53.258;6.932;2023-05-08T09:44:15;102340.21;;;17.64;57.28
65659;BME280;60181;53.258;6.932;2023-05-08T09:48:18;102338.05;;;17.68;57.19
65659;BME280;60181;53.258;6.932;2023-05-08T09:52:23;102335.55;;;17.72;57.15
65659;BME280;60181;53.258;6.932;2023-05-08T09:56:36;102332.89;;;17.75;57.13
65659;BME280;60181;53.258;6.932;2023-05-08T10:00:31;102330.58;;;17.77;57.10
65659;BME280;60181;53.258;6.932;2023-05-08T10:04:35;102328.11;;;17.79;57.15
65659;BME280;60181;53.258;6.932;2023-05-08T10:08:39;102326.25;;;17.81;57.21
65659;BME280;60181;53.258;6.932;2023-05-08T10:12:42;102324.76;;;17.82;57.27
65659;BME280;60181;53.258;6.932;2023-05-08T10:16:47;102322.77;;;17.82;57.36
65659;BME280;60181;53.258;6.932;2023-05-08T10:20:50;102320.81;;;17.82;57.34
65659;BME280;60181;53.258;6.932;2023-05-08T10:24:55;102318.90;;;17.83;57.38
65659;BME280;60181;53.258;6.932;2023-05-08T10:29:00;102317.83;;;17.82;57.44
65659;BME280;60181;53.258;6.932;2023-05-08T10:33:02;102315.06;;;17.82;57.53
65659;BME280;60181;53.258;6.932;2023-05-08T10:37:09;102313.08;;;17.81;57.56
65659;BME280;60181;53.258;6.932;2023-05-08T10:41:10;102310.06;;;17.80;57.63
65659;BME280;60181;53.258;6.932;2023-05-08T10:45:14;102307.56;;;17.79;57.67
65659;BME280;60181;53.258;6.932;2023-05-08T10:57:26;102300.44;;;17.76;57.82
65659;BME280;60181;53.258;6.932;2023-05-08T11:01:30;102297.92;;;17.75;57.89
65659;BME280;60181;53.258;6.932;2023-05-08T11:05:44;102294.84;;;17.74;57.91
65659;BME280;60181;53.258;6.932;2023-05-08T11:09:45;102292.94;;;17.73;57.94
65659;BME280;60181;53.258;6.932;2023-05-08T11:17:52;102287.66;;;17.72;58.05
65659;BME280;60181;53.258;6.932;2023-05-08T11:26:12;102286.14;;;17.71;58.11
65659;BME280;60181;53.258;6.932;2023-05-08T11:34:02;102284.99;;;17.70;58.19
65659;BME280;60181;53.258;6.932;2023-05-08T11:38:19;102284.08;;;17.70;58.21
65659;BME280;60181;53.258;6.932;2023-05-08T11:46:16;102285.04;;;17.69;59.05
65659;BME280;60181;53.258;6.932;2023-05-08T11:50:18;102286.28;;;17.69;59.13
65659;BME280;60181;53.258;6.932;2023-05-08T11:54:24;102286.28;;;17.69;59.43
65659;BME280;60181;53.258;6.932;2023-05-08T11:58:26;102285.79;;;17.69;59.62
65659;BME280;60181;53.258;6.932;2023-05-08T12:02:40;102286.15;;;17.70;59.90
65659;BME280;60181;53.258;6.932;2023-05-08T12:06:35;102286.31;;;17.70;60.22
65659;BME280;60181;53.258;6.932;2023-05-08T12:10:48;102284.56;;;17.70;60.22
65659;BME280;60181;53.258;6.932;2023-05-08T12:14:42;102282.11;;;17.71;60.40
65659;BME280;60181;53.258;6.932;2023-05-08T12:18:50;102280.20;;;17.71;61.21
65659;BME280;60181;53.258;6.932;2023-05-08T12:22:51;102278.79;;;17.71;61.18
65659;BME280;60181;53.258;6.932;2023-05-08T12:26:54;102276.00;;;17.72;61.06
65659;BME280;60181;53.258;6.932;2023-05-08T12:30:59;102273.10;;;17.73;61.61
65659;BME280;60181;53.258;6.932;2023-05-08T12:35:02;102268.91;;;17.73;61.77
65659;BME280;60181;53.258;6.932;2023-05-08T12:39:16;102265.75;;;17.74;61.41
65659;BME280;60181;53.258;6.932;2023-05-08T12:43:10;102262.09;;;17.74;62.09
65659;BME280;60181;53.258;6.932;2023-05-08T12:47:14;102259.39;;;17.75;61.95
65659;BME280;60181;53.258;6.932;2023-05-08T12:51:18;102257.26;;;17.75;61.78
65659;BME280;60181;53.258;6.932;2023-05-08T12:55:26;102256.30;;;17.76;62.15
65659;BME280;60181;53.258;6.932;2023-05-08T12:59:32;102254.80;;;17.77;62.43
65659;BME280;60181;53.258;6.932;2023-05-08T13:03:30;102252.67;;;17.77;62.51
65659;BME280;60181;53.258;6.932;2023-05-08T13:07:34;102250.43;;;17.78;62.43
65659;BME280;60181;53.258;6.932;2023-05-08T13:11:38;102246.95;;;17.78;62.84
65659;BME280;60181;53.258;6.932;2023-05-08T13:15:42;102243.66;;;17.79;62.75
65659;BME280;60181;53.258;6.932;2023-05-08T13:19:46;102239.76;;;17.79;63.04
65659;BME280;60181;53.258;6.932;2023-05-08T13:23:50;102235.46;;;17.79;63.09
65659;BME280;60181;53.258;6.932;2023-05-08T13:27:54;102231.00;;;17.81;63.25
65659;BME280;60181;53.258;6.932;2023-05-08T13:31:58;102226.47;;;17.81;63.49
65659;BME280;60181;53.258;6.932;2023-05-08T13:36:03;102222.31;;;17.82;62.26
65659;BME280;60181;53.258;6.932;2023-05-08T13:40:07;102219.44;;;17.83;62.53
65659;BME280;60181;53.258;6.932;2023-05-08T13:44:10;102214.50;;;17.83;62.24
65659;BME280;60181;53.258;6.932;2023-05-08T13:48:14;102210.10;;;17.84;62.66
65659;BME280;60181;53.258;6.932;2023-05-08T13:52:18;102206.39;;;17.85;62.73
65659;BME280;60181;53.258;6.932;2023-05-08T13:56:22;102201.70;;;17.85;63.55
65659;BME280;60181;53.258;6.932;2023-05-08T14:00:26;102197.05;;;17.86;62.42
65659;BME280;60181;53.258;6.932;2023-05-08T14:04:30;102192.10;;;17.86;63.25
65659;BME280;60181;53.258;6.932;2023-05-08T14:08:34;102186.63;;;17.87;63.73
65659;BME280;60181;53.258;6.932;2023-05-08T14:12:38;102181.41;;;17.87;62.98
65659;BME280;60181;53.258;6.932;2023-05-08T14:16:42;102175.96;;;17.88;63.33
65659;BME280;60181;53.258;6.932;2023-05-08T14:20:46;102170.08;;;17.88;62.86
65659;BME280;60181;53.258;6.932;2023-05-08T14:24:50;102165.43;;;17.89;63.83
65659;BME280;60181;53.258;6.932;2023-05-08T14:28:54;102161.94;;;17.89;64.07
65659;BME280;60181;53.258;6.932;2023-05-08T14:32:58;102158.96;;;17.89;63.61
65659;BME280;60181;53.258;6.932;2023-05-08T14:37:02;102155.17;;;17.89;63.02
65659;BME280;60181;53.258;6.932;2023-05-08T14:41:06;102152.51;;;17.90;63.47
65659;BME280;60181;53.258;6.932;2023-05-08T14:45:10;102149.48;;;17.90;63.34
65659;BME280;60181;53.258;6.932;2023-05-08T14:49:14;102147.85;;;17.91;63.78
65659;BME280;60181;53.258;6.932;2023-05-08T14:53:18;102145.21;;;17.92;63.20
65659;BME280;60181;53.258;6.932;2023-05-08T14:57:22;102142.50;;;17.93;63.81
65659;BME280;60181;53.258;6.932;2023-05-08T15:01:26;102140.70;;;17.94;63.17
65659;BME280;60181;53.258;6.932;2023-05-08T15:05:30;102140.72;;;17.95;63.91
65659;BME280;60181;53.258;6.932;2023-05-08T15:09:34;102140.48;;;17.97;63.31
65659;BME280;60181;53.258;6.932;2023-05-08T15:13:38;102140.54;;;17.98;63.28
65659;BME280;60181;53.258;6.932;2023-05-08T15:17:42;102139.98;;;17.99;63.44
65659;BME280;60181;53.258;6.932;2023-05-08T15:21:46;102138.51;;;18.00;63.88
65659;BME280;60181;53.258;6.932;2023-05-08T15:25:50;102136.61;;;18.02;64.54
65659;BME280;60181;53.258;6.932;2023-05-08T15:29:54;102134.80;;;18.01;64.57
65659;BME280;60181;53.258;6.932;2023-05-08T15:33:58;102132.45;;;18.01;64.94
65659;BME280;60181;53.258;6.932;2023-05-08T15:38:02;102131.38;;;18.00;65.23
65659;BME280;60181;53.258;6.932;2023-05-08T15:42:06;102129.46;;;17.99;64.94
65659;BME280;60181;53.258;6.932;2023-05-08T15:46:10;102127.50;;;17.97;65.34
65659;BME280;60181;53.258;6.932;2023-05-08T15:50:14;102125.37;;;17.96;65.83
65659;BME280;60181;53.258;6.932;2023-05-08T15:54:18;102122.88;;;17.94;66.11
65659;BME280;60181;53.258;6.932;2023-05-08T15:58:22;102120.17;;;17.93;65.08
65659;BME280;60181;53.258;6.932;2023-05-08T16:02:26;102118.08;;;17.92;66.23
65659;BME280;60181;53.258;6.932;2023-05-08T16:06:30;102116.49;;;17.90;66.36
65659;BME280;60181;53.258;6.932;2023-05-08T16:10:34;102114.89;;;17.89;66.65
65659;BME280;60181;53.258;6.932;2023-05-08T16:14:38;102115.54;;;17.88;66.54
65659;BME280;60181;53.258;6.932;2023-05-08T16:18:42;102116.24;;;17.86;66.36
65659;BME280;60181;53.258;6.932;2023-05-08T16:22:46;102117.05;;;17.84;67.56
65659;BME280;60181;53.258;6.932;2023-05-08T16:26:50;102117.25;;;17.83;67.84
65659;BME280;60181;53.258;6.932;2023-05-08T16:30:54;102116.74;;;17.82;67.75
65659;BME280;60181;53.258;6.932;2023-05-08T16:34:58;102117.49;;;17.81;69.03
65659;BME280;60181;53.258;6.932;2023-05-08T16:39:02;102119.78;;;17.80;69.95
65659;BME280;60181;53.258;6.932;2023-05-08T16:43:06;102120.92;;;17.79;70.11
65659;BME280;60181;53.258;6.932;2023-05-08T16:47:10;102122.08;;;17.79;70.11
65659;BME280;60181;53.258;6.932;2023-05-08T16:51:14;102121.72;;;17.78;70.50
65659;BME280;60181;53.258;6.932;2023-05-08T16:55:18;102121.15;;;17.78;69.39
65659;BME280;60181;53.258;6.932;2023-05-08T16:59:22;102121.04;;;17.77;68.86
65659;BME280;60181;53.258;6.932;2023-05-08T17:03:26;102122.88;;;17.76;68.39
65659;BME280;60181;53.258;6.932;2023-05-08T17:07:30;102124.00;;;17.76;70.36
65659;BME280;60181;53.258;6.932;2023-05-08T17:11:34;102125.72;;;17.75;70.80
65659;BME280;60181;53.258;6.932;2023-05-08T17:15:38;102126.14;;;17.74;70.62
65659;BME280;60181;53.258;6.932;2023-05-08T17:19:42;102127.76;;;17.74;70.78
65659;BME280;60181;53.258;6.932;2023-05-08T17:23:46;102130.92;;;17.73;71.24
65659;BME280;60181;53.258;6.932;2023-05-08T17:27:50;102134.05;;;17.73;71.20
65659;BME280;60181;53.258;6.932;2023-05-08T17:31:54;102134.88;;;17.72;70.89
65659;BME280;60181;53.258;6.932;2023-05-08T17:35:59;102134.52;;;17.72;69.42
65659;BME280;60181;53.258;6.932;2023-05-08T17:40:02;102134.36;;;17.72;69.59
65659;BME280;60181;53.258;6.932;2023-05-08T17:44:06;102133.53;;;17.72;71.67
65659;BME280;60181;53.258;6.932;2023-05-08T17:48:10;102133.45;;;17.71;70.79
65659;BME280;60181;53.258;6.932;2023-05-08T17:52:14;102133.95;;;17.71;71.22
65659;BME280;60181;53.258;6.932;2023-05-08T17:56:18;102134.67;;;17.70;71.45
65659;BME280;60181;53.258;6.932;2023-05-08T18:00:22;102135.14;;;17.69;71.24
65659;BME280;60181;53.258;6.932;2023-05-08T18:04:26;102136.69;;;17.68;71.17
65659;BME280;60181;53.258;6.932;2023-05-08T18:08:30;102138.94;;;17.68;71.21
65659;BME280;60181;53.258;6.932;2023-05-08T18:12:34;102139.50;;;17.66;71.39
65659;BME280;60181;53.258;6.932;2023-05-08T18:16:38;102141.05;;;17.66;71.58
65659;BME280;60181;53.258;6.932;2023-05-08T18:20:42;102140.69;;;17.64;71.76
65659;BME280;60181;53.258;6.932;2023-05-08T18:24:46;102139.59;;;17.64;72.09
65659;BME280;60181;53.258;6.932;2023-05-08T18:28:50;102138.19;;;17.63;72.20
65659;BME280;60181;53.258;6.932;2023-05-08T18:32:54;102136.92;;;17.62;72.53
65659;BME280;60181;53.258;6.932;2023-05-08T18:36:58;102135.91;;;17.61;72.13
65659;BME280;60181;53.258;6.932;2023-05-08T18:41:02;102134.30;;;17.60;73.03
65659;BME280;60181;53.258;6.932;2023-05-08T18:45:06;102131.80;;;17.59;72.59
65659;BME280;60181;53.258;6.932;2023-05-08T18:49:10;102129.40;;;17.59;73.29
65659;BME280;60181;53.258;6.932;2023-05-08T18:53:14;102127.80;;;17.58;73.42
65659;BME280;60181;53.258;6.932;2023-05-08T18:57:18;102126.11;;;17.57;73.38
65659;BME280;60181;53.258;6.932;2023-05-08T19:01:22;102123.22;;;17.56;73.46
65659;BME280;60181;53.258;6.932;2023-05-08T19:05:26;102120.79;;;17.56;72.81
65659;BME280;60181;53.258;6.932;2023-05-08T19:09:30;102118.62;;;17.55;72.48
65659;BME280;60181;53.258;6.932;2023-05-08T19:13:34;102116.47;;;17.54;71.71
65659;BME280;60181;53.258;6.932;2023-05-08T19:17:38;102113.79;;;17.54;72.00
65659;BME280;60181;53.258;6.932;2023-05-08T19:21:42;102112.02;;;17.53;72.06
65659;BME280;60181;53.258;6.932;2023-05-08T19:25:46;102111.61;;;17.53;72.28
65659;BME280;60181;53.258;6.932;2023-05-08T19:29:50;102109.96;;;17.52;72.07
65659;BME280;60181;53.258;6.932;2023-05-08T19:33:54;102108.39;;;17.52;72.22
65659;BME280;60181;53.258;6.932;2023-05-08T19:37:58;102107.73;;;17.52;72.05
65659;BME280;60181;53.258;6.932;2023-05-08T19:42:02;102107.89;;;17.52;72.33
65659;BME280;60181;53.258;6.932;2023-05-08T19:46:06;102108.89;;;17.52;72.23
65659;BME280;60181;53.258;6.932;2023-05-08T19:50:10;102111.38;;;17.52;72.54
65659;BME280;60181;53.258;6.932;2023-05-08T19:54:14;102116.02;;;17.52;72.00
65659;BME280;60181;53.258;6.932;2023-05-08T19:58:18;102120.15;;;17.52;71.91
65659;BME280;60181;53.258;6.932;2023-05-08T20:02:22;102122.80;;;17.52;72.68
65659;BME280;60181;53.258;6.932;2023-05-08T20:06:26;102122.86;;;17.52;72.31
65659;BME280;60181;53.258;6.932;2023-05-08T20:10:30;102123.19;;;17.52;72.26
65659;BME280;60181;53.258;6.932;2023-05-08T20:14:34;102124.52;;;17.52;72.40
65659;BME280;60181;53.258;6.932;2023-05-08T20:18:38;102126.17;;;17.52;72.41
65659;BME280;60181;53.258;6.932;2023-05-08T20:22:42;102126.09;;;17.51;72.53
65659;BME280;60181;53.258;6.932;2023-05-08T20:26:46;102124.60;;;17.51;72.49
65659;BME280;60181;53.258;6.932;2023-05-08T20:30:50;102122.17;;;17.51;72.43
65659;BME280;60181;53.258;6.932;2023-05-08T20:34:54;102121.12;;;17.51;72.82
65659;BME280;60181;53.258;6.932;2023-05-08T20:38:58;102119.08;;;17.52;71.94
65659;BME280;60181;53.258;6.932;2023-05-08T20:43:02;102116.28;;;17.54;71.76
65659;BME280;60181;53.258;6.932;2023-05-08T20:47:06;102112.07;;;17.55;71.55
65659;BME280;60181;53.258;6.932;2023-05-08T20:51:10;102108.20;;;17.56;71.38
65659;BME280;60181;53.258;6.932;2023-05-08T20:55:14;102104.75;;;17.57;71.64
65659;BME280;60181;53.258;6.932;2023-05-08T20:59:18;102101.76;;;17.57;72.10
65659;BME280;60181;53.258;6.932;2023-05-08T21:03:22;102097.97;;;17.58;72.06
65659;BME280;60181;53.258;6.932;2023-05-08T21:07:26;102092.83;;;17.58;72.50
65659;BME280;60181;53.258;6.932;2023-05-08T21:11:30;102087.31;;;17.59;72.37
65659;BME280;60181;53.258;6.932;2023-05-08T21:15:34;102081.92;;;17.59;72.66
65659;BME280;60181;53.258;6.932;2023-05-08T21:19:38;102076.79;;;17.59;72.55
65659;BME280;60181;53.258;6.932;2023-05-08T21:23:42;102072.06;;;17.59;73.51
65659;BME280;60181;53.258;6.932;2023-05-08T21:27:46;102068.01;;;17.59;73.07
65659;BME280;60181;53.258;6.932;2023-05-08T21:31:50;102065.69;;;17.59;72.93
65659;BME280;60181;53.258;6.932;2023-05-08T21:35:54;102063.37;;;17.59;73.07
65659;BME280;60181;53.258;6.932;2023-05-08T21:39:58;102061.71;;;17.59;73.15
65659;BME280;60181;53.258;6.932;2023-05-08T21:44:02;102059.81;;;17.59;72.96
65659;BME280;60181;53.258;6.932;2023-05-08T21:48:06;102058.15;;;17.59;72.91
65659;BME280;60181;53.258;6.932;2023-05-08T21:52:10;102056.83;;;17.59;73.66
65659;BME280;60181;53.258;6.932;2023-05-08T21:56:14;102054.39;;;17.58;74.14
65659;BME280;60181;53.258;6.932;2023-05-08T22:00:18;102051.67;;;17.58;75.05
65659;BME280;60181;53.258;6.932;2023-05-08T22:04:22;102048.60;;;17.58;73.48
65659;BME280;60181;53.258;6.932;2023-05-08T22:08:25;102045.70;;;17.58;73.46
65659;BME280;60181;53.258;6.932;2023-05-08T22:12:29;102044.20;;;17.58;73.23